Time;durP1;ratioP1;P1;durP2;ratioP2;P2;SDS_P1;SDS_P2;PMS_P1;PMS_P2;Temp;Humidity;BMP_temperature;BMP_pressure;BME280_temperature;BME280_humidity;BME280_pressure;Samples;Min_cycle;Max_cycle;Signal;HPM_P1;HPM_P2
2022/04/21 00:04:42;;;;;;;41.60;27.90;;;;;;;8.03;57.02;98619.77;232753;1217;139720;-57
2022/04/21 00:09:45;;;;;;;42.10;28.30;;;;;;;8.00;57.03;98622.05;233501;1217;138740;-60
2022/04/21 00:14:48;;;;;;;50.80;30.90;;;;;;;7.97;57.43;98618.52;233567;1217;138939;-60
2022/04/21 00:19:51;;;;;;;45.20;30.40;;;;;;;7.92;57.20;98622.87;233447;1217;138919;-60
2022/04/21 00:24:54;;;;;;;46.70;29.80;;;;;;;7.86;57.37;98631.91;233503;1217;138569;-60
2022/04/21 00:29:57;;;;;;;46.00;29.30;;;;;;;7.83;57.30;98628.34;233546;1217;139022;-60
2022/04/21 00:35:00;;;;;;;48.60;30.90;;;;;;;7.83;57.44;98624.96;233719;1217;138650;-61
2022/04/21 00:40:04;;;;;;;45.40;30.10;;;;;;;7.83;57.51;98626.90;233538;1217;140663;-58
2022/04/21 00:45:09;;;;;;;46.40;30.40;;;;;;;7.82;57.78;98622.52;233620;1217;139797;-60
2022/04/21 00:50:18;;;;;;;45.30;32.00;;;;;;;7.83;57.81;98624.61;233527;1217;139113;-60
2022/04/21 00:55:22;;;;;;;45.60;31.90;;;;;;;7.83;57.70;98626.75;233514;1217;139113;-59
2022/04/21 01:00:25;;;;;;;44.70;31.60;;;;;;;7.84;57.67;98632.17;233651;1217;139623;-60
2022/04/21 01:05:31;;;;;;;50.80;33.50;;;;;;;7.84;57.76;98630.94;232695;1217;139292;-59
2022/04/21 01:10:35;;;;;;;;;;;;;;;7.82;57.82;98634.56;233031;1217;140334;-61
2022/04/21 01:15:40;;;;;;;47.30;31.40;;;;;;;7.80;57.92;98637.86;233816;1217;125389;-60
2022/04/21 01:20:43;;;;;;;47.50;32.90;;;;;;;7.79;58.09;98632.11;232756;1217;139157;-60
2022/04/21 01:25:47;;;;;;;50.10;32.10;;;;;;;7.79;58.02;98636.35;233616;1217;139022;-60
2022/04/21 01:30:54;;;;;;;47.10;34.30;;;;;;;7.77;58.28;98636.95;232688;1217;138682;-60
2022/04/21 01:35:57;;;;;;;53.70;33.40;;;;;;;7.77;58.07;98633.27;233695;1217;138895;-62
2022/04/21 01:41:09;;;;;;;50.60;33.50;;;;;;;7.75;58.34;98628.24;233561;1217;139618;-60
2022/04/21 01:46:13;;;;;;;47.80;32.40;;;;;;;7.75;58.37;98629.13;233496;1218;138797;-61
2022/04/21 01:51:16;;;;;;;46.60;31.60;;;;;;;7.76;58.32;98626.80;233756;1217;139160;-60
2022/04/21 01:56:19;;;;;;;50.40;33.00;;;;;;;7.75;58.38;98619.58;233626;1217;138861;-59
2022/04/21 02:01:22;;;;;;;49.20;32.80;;;;;;;7.74;58.22;98615.24;233455;1217;138978;-59
2022/04/21 02:06:25;;;;;;;45.00;31.70;;;;;;;7.71;58.29;98618.95;233504;1217;141182;-61
2022/04/21 02:11:29;;;;;;;46.60;31.60;;;;;;;7.69;58.34;98621.89;233670;1217;138310;-60
2022/04/21 02:16:32;;;;;;;52.30;33.00;;;;;;;7.66;58.31;98627.20;233579;1217;138547;-59
2022/04/21 02:21:35;;;;;;;50.60;30.20;;;;;;;7.66;58.25;98623.64;233603;1217;139192;-61
2022/04/21 02:26:38;;;;;;;51.60;32.00;;;;;;;7.71;58.75;98612.77;232912;1217;140314;-59
2022/04/21 02:31:42;;;;;;;50.00;33.70;;;;;;;7.76;58.86;98617.58;233412;1217;138627;-61
2022/04/21 02:36:45;;;;;;;52.20;32.70;;;;;;;7.81;58.67;98615.70;233425;1217;139713;-61
2022/04/21 02:41:47;;;;;;;49.70;32.80;;;;;;;7.84;58.56;98614.67;233317;1217;139209;-59
2022/04/21 02:46:51;;;;;;;49.20;32.50;;;;;;;7.86;58.75;98619.17;232559;1217;138908;-62
2022/04/21 02:51:56;;;;;;;;;;;;;;;7.84;58.77;98603.75;233531;1217;138472;-65
2022/04/21 03:02:22;;;;;;;54.80;33.50;;;;;;;7.75;58.78;98615.73;233599;1217;139700;-60
2022/04/21 03:07:25;;;;;;;53.30;35.30;;;;;;;7.69;58.58;98604.61;233459;1217;139217;-60
2022/04/21 03:12:28;;;;;;;60.80;37.70;;;;;;;7.63;58.82;98606.89;233478;1217;139059;-62
2022/04/21 03:17:32;;;;;;;57.40;39.00;;;;;;;7.57;58.93;98596.23;233593;1217;138670;-61
2022/04/21 03:27:57;;;;;;;93.20;64.70;;;;;;;7.59;59.45;98592.48;233536;1217;138794;-61
2022/04/21 03:33:00;;;;;;;59.40;39.40;;;;;;;7.66;59.63;98596.27;233739;1217;139048;-61
2022/04/21 03:38:03;;;;;;;56.50;36.50;;;;;;;7.69;59.17;98597.86;233595;1217;139473;-60
2022/04/21 03:43:07;;;;;;;60.50;38.70;;;;;;;7.71;59.43;98608.70;233486;1217;139177;-61
2022/04/21 03:48:11;;;;;;;64.20;39.90;;;;;;;7.73;59.60;98605.44;233606;1217;139231;-59
2022/04/21 03:53:14;;;;;;;64.50;40.30;;;;;;;7.74;59.44;98612.75;233634;1217;139591;-61
2022/04/21 03:58:18;;;;;;;59.80;39.10;;;;;;;7.75;59.48;98610.79;233614;1217;139816;-61
2022/04/21 04:03:21;;;;;;;205.60;148.40;;;;;;;7.74;59.47;98607.63;233848;1217;139465;-61
2022/04/21 04:13:45;;;;;;;64.10;41.50;;;;;;;7.81;59.56;98610.61;232402;1217;138671;-61
2022/04/21 04:18:48;;;;;;;59.80;40.40;;;;;;;7.75;59.43;98617.48;232621;1217;138619;-63
2022/04/21 04:23:52;;;;;;;60.10;39.50;;;;;;;7.68;59.56;98616.84;233420;1217;138648;-63
2022/04/21 04:28:54;;;;;;;59.80;40.20;;;;;;;7.63;59.56;98609.86;233671;1217;138364;-62
2022/04/21 04:33:57;;;;;;;58.00;39.20;;;;;;;7.62;59.56;98611.90;233718;1217;138675;-62
2022/04/21 04:39:06;;;;;;;60.10;38.50;;;;;;;7.59;59.87;98608.71;233746;1217;138719;-62
2022/04/21 04:44:09;;;;;;;56.70;36.70;;;;;;;7.58;59.82;98611.95;233527;1217;138593;-62
2022/04/21 04:49:12;;;;;;;56.60;37.20;;;;;;;7.59;59.92;98613.64;233254;1217;139007;-63
2022/04/21 04:54:16;;;;;;;61.10;39.30;;;;;;;7.59;59.80;98621.92;233590;1217;139311;-63
2022/04/21 04:59:19;;;;;;;62.30;38.60;;;;;;;7.64;60.02;98616.67;233510;1217;139698;-60
2022/04/21 05:04:23;;;;;;;64.80;39.10;;;;;;;7.73;59.94;98617.05;233562;1217;139036;-62
2022/04/21 05:09:26;;;;;;;65.80;40.30;;;;;;;7.84;60.08;98611.31;233584;1217;139242;-62
2022/04/21 05:14:29;;;;;;;65.80;40.40;;;;;;;7.94;60.20;98610.06;233450;1217;138606;-62
2022/04/21 05:19:33;;;;;;;62.40;41.00;;;;;;;7.98;59.92;98605.73;232543;1217;140598;-62
2022/04/21 05:24:38;;;;;;;67.10;42.30;;;;;;;7.97;59.96;98605.80;232375;1217;139245;-60
2022/04/21 05:35:04;;;;;;;65.40;40.90;;;;;;;7.92;59.97;98603.44;233559;1217;139639;-61
2022/04/21 05:40:08;;;;;;;60.30;38.30;;;;;;;7.93;60.12;98605.15;233602;1217;139268;-60
2022/04/21 05:45:12;;;;;;;63.40;40.80;;;;;;;7.95;59.90;98607.34;233549;1217;139916;-61
2022/04/21 05:50:15;;;;;;;59.70;40.20;;;;;;;7.95;60.08;98604.87;233510;1217;139678;-61
2022/04/21 05:55:19;;;;;;;63.20;40.40;;;;;;;7.99;60.10;98604.83;233393;1217;210987;-61
2022/04/21 06:00:22;;;;;;;58.10;39.00;;;;;;;8.06;60.15;98603.31;233514;1217;138753;-61
2022/04/21 06:05:26;;;;;;;59.00;41.40;;;;;;;8.12;60.06;98608.82;233465;1217;139168;-61
2022/04/21 06:10:29;;;;;;;62.80;40.70;;;;;;;8.14;60.03;98612.04;233406;1219;139878;-61
2022/04/21 06:15:32;;;;;;;62.60;41.40;;;;;;;8.18;59.96;98607.55;233638;1217;138576;-61
2022/04/21 06:20:35;;;;;;;59.10;38.00;;;;;;;8.28;60.01;98608.02;233514;1217;139682;-61
2022/04/21 06:25:39;;;;;;;67.20;41.60;;;;;;;8.30;59.90;98605.05;233125;1217;139262;-59
2022/04/21 06:30:42;;;;;;;57.60;41.20;;;;;;;8.35;59.90;98605.71;233546;1217;138840;-59
2022/04/21 06:35:51;;;;;;;60.10;40.40;;;;;;;8.39;59.93;98601.59;233578;1217;139094;-60
2022/04/21 06:40:55;;;;;;;59.70;41.50;;;;;;;8.47;59.93;98600.17;233507;1217;139172;-57
2022/04/21 06:51:19;;;;;;;65.00;42.20;;;;;;;8.56;59.71;98597.40;233606;1217;139529;-61
2022/04/21 06:56:22;;;;;;;57.60;39.50;;;;;;;8.59;59.80;98599.14;233512;1217;138381;-61
2022/04/21 07:01:29;;;;;;;52.80;35.60;;;;;;;8.64;59.48;98601.63;231882;1217;138612;-61
2022/04/21 07:06:33;;;;;;;57.40;35.10;;;;;;;8.71;59.62;98602.45;233530;1217;139056;-59
2022/04/21 07:11:38;;;;;;;60.10;37.40;;;;;;;8.81;59.51;98606.43;233512;1217;139247;-61
2022/04/21 07:16:41;;;;;;;51.40;32.80;;;;;;;8.88;59.29;98610.27;233667;1217;138633;-62
2022/04/21 07:21:44;;;;;;;52.60;34.30;;;;;;;8.97;59.26;98612.48;233718;1217;138610;-62
2022/04/21 07:26:47;;;;;;;45.60;30.80;;;;;;;9.10;59.31;98612.96;233172;1217;139431;-65
2022/04/21 07:31:49;;;;;;;37.50;28.80;;;;;;;9.27;59.28;98616.81;233657;1217;138661;-62
2022/04/21 07:36:53;;;;;;;46.00;31.10;;;;;;;9.40;58.97;98617.04;233424;1217;138966;-63
2022/04/21 07:41:59;;;;;;;40.80;27.90;;;;;;;9.52;58.72;98620.03;233487;1217;138743;-63
2022/04/21 07:47:04;;;;;;;42.10;28.50;;;;;;;9.62;58.71;98618.83;233611;1217;138713;-63
2022/04/21 07:57:29;;;;;;;36.80;24.40;;;;;;;9.85;57.96;98621.20;233584;1217;139191;-61
2022/04/21 08:02:33;;;;;;;38.30;24.70;;;;;;;9.95;57.49;98620.69;233525;1217;138779;-62
2022/04/21 08:07:36;;;;;;;84.10;62.80;;;;;;;10.05;57.48;98623.30;232286;1217;139664;-61
2022/04/21 08:12:47;;;;;;;39.50;26.00;;;;;;;10.09;57.49;98624.56;233482;1217;140738;-61
2022/04/21 08:17:51;;;;;;;35.70;23.20;;;;;;;10.20;56.77;98620.30;233436;1217;139370;-60
2022/04/21 08:22:54;;;;;;;31.90;23.20;;;;;;;10.29;56.50;98628.58;233360;1217;139201;-62
2022/04/21 08:33:19;;;;;;;32.10;20.50;;;;;;;10.43;56.11;98613.81;233300;1217;139467;-59
2022/04/21 08:38:22;;;;;;;31.90;21.20;;;;;;;10.51;55.94;98607.41;233405;1217;138995;-60
2022/04/21 08:43:27;;;;;;;29.30;19.30;;;;;;;10.62;55.90;98598.86;233394;1217;139974;-60
2022/04/21 08:48:31;;;;;;;25.70;18.00;;;;;;;10.79;55.81;98605.29;233255;1217;139271;-62
2022/04/21 08:53:35;;;;;;;22.20;14.80;;;;;;;10.93;55.19;98606.11;233249;1217;139288;-62
2022/04/21 08:58:38;;;;;;;24.90;16.70;;;;;;;11.04;54.77;98603.21;233339;1216;139726;-62
2022/04/21 09:03:41;;;;;;;23.60;16.00;;;;;;;11.11;54.47;98596.14;233577;1217;139548;-61
2022/04/21 09:08:44;;;;;;;20.70;14.60;;;;;;;11.18;54.35;98598.63;233355;1217;139401;-62
2022/04/21 09:13:47;;;;;;;20.20;12.40;;;;;;;11.25;54.01;98593.02;233370;1217;139515;-61
2022/04/21 09:19:02;;;;;;;24.90;13.70;;;;;;;11.31;53.66;98588.64;233568;1217;138944;-61
2022/04/21 09:24:22;;;;;;;21.70;14.10;;;;;;;11.45;53.91;98587.68;233457;1217;139266;-58
2022/04/21 09:29:32;;;;;;;19.80;14.90;;;;;;;11.58;53.37;98586.08;233310;1217;141866;-61
2022/04/21 09:34:37;;;;;;;17.90;13.90;;;;;;;11.61;52.91;98584.69;233311;1217;138890;-59
2022/04/21 09:39:49;;;;;;;17.20;12.10;;;;;;;11.64;52.72;98584.45;233483;1218;139099;-60
2022/04/21 09:50:26;;;;;;;11.50;8.00;;;;;;;11.70;52.24;98587.73;233270;1219;140719;-61
2022/04/21 09:55:31;;;;;;;11.40;8.50;;;;;;;11.73;51.66;98593.95;233434;1217;140737;-61
2022/04/21 10:00:36;;;;;;;23.10;16.40;;;;;;;11.81;51.81;98589.76;233366;1217;139286;-60
2022/04/21 10:05:40;;;;;;;18.00;11.10;;;;;;;12.03;52.49;98581.95;233433;1217;139413;-62
2022/04/21 10:10:43;;;;;;;17.10;9.00;;;;;;;12.16;51.33;98576.84;233426;1217;140020;-62
2022/04/21 10:15:47;;;;;;;12.10;8.10;;;;;;;12.22;51.08;98575.67;233577;1216;138478;-60
2022/04/21 10:20:53;;;;;;;9.20;6.20;;;;;;;12.26;50.49;98577.66;233403;1217;139664;-62
2022/04/21 10:26:01;;;;;;;9.50;5.90;;;;;;;12.32;50.34;98577.80;233414;1217;139153;-61
2022/04/21 10:31:33;;;;;;;8.90;6.80;;;;;;;12.33;49.78;98575.97;233336;1217;138572;-62
2022/04/21 10:36:41;;;;;;;11.10;6.20;;;;;;;12.32;49.48;98579.36;233361;1217;139336;-62
2022/04/21 10:41:45;;;;;;;13.00;7.20;;;;;;;12.35;49.53;98575.05;233417;1217;139455;-62
2022/04/21 10:46:48;;;;;;;7.70;6.30;;;;;;;12.40;49.20;98575.89;233386;1217;138944;-62
2022/04/21 10:57:17;;;;;;;7.40;5.50;;;;;;;12.48;49.17;98566.36;233433;1217;138763;-62
2022/04/21 11:02:20;;;;;;;7.40;5.80;;;;;;;12.54;48.85;98563.10;233422;1217;138948;-63
2022/04/21 11:07:23;;;;;;;13.30;7.40;;;;;;;12.61;48.82;98560.39;233613;1217;138702;-60
2022/04/21 11:12:44;;;;;;;12.10;8.50;;;;;;;12.72;48.52;98564.55;234066;1217;139366;-59
2022/04/21 11:18:10;;;;;;;15.10;8.30;;;;;;;12.83;48.60;98569.91;233423;1217;138777;-55
2022/04/21 11:23:45;;;;;;;13.10;8.80;;;;;;;12.93;48.45;98567.34;233882;1217;139001;-59
2022/04/21 11:28:48;;;;;;;19.40;11.60;;;;;;;13.15;49.83;98566.30;233965;1217;138926;-60
2022/04/21 11:33:51;;;;;;;11.20;7.90;;;;;;;13.91;49.45;98556.00;234171;1217;139586;-60
2022/04/21 11:38:55;;;;;;;9.70;8.00;;;;;;;13.97;48.46;98546.95;233952;1217;139370;-59
2022/04/21 11:43:58;;;;;;;10.20;8.10;;;;;;;13.90;48.04;98542.02;234049;1217;138868;-60
2022/04/21 11:49:01;;;;;;;15.20;8.30;;;;;;;13.81;47.90;98537.45;234037;1217;139133;-61
2022/04/21 11:54:06;;;;;;;11.20;8.20;;;;;;;13.69;47.47;98546.21;232401;1216;138756;-58
2022/04/21 11:59:10;;;;;;;13.20;9.60;;;;;;;13.63;47.44;98551.57;231461;1217;138595;-57
2022/04/21 12:09:40;;;;;;;15.80;11.00;;;;;;;13.49;48.27;98550.19;234128;1217;139471;-60
2022/04/21 12:14:43;;;;;;;20.70;13.20;;;;;;;13.43;48.38;98551.21;234095;1217;139684;-60
2022/04/21 12:19:47;;;;;;;20.10;11.90;;;;;;;13.35;48.43;98546.91;233801;1216;139587;-59
2022/04/21 12:24:54;;;;;;;20.10;12.50;;;;;;;13.31;48.25;98548.50;233902;1217;140375;-60
2022/04/21 12:30:03;;;;;;;18.20;12.90;;;;;;;13.26;48.41;98545.29;233732;1217;140666;-61
2022/04/21 12:35:09;;;;;;;20.30;13.10;;;;;;;13.26;48.42;98539.77;233903;1217;139144;-60
2022/04/21 12:40:14;;;;;;;22.10;13.40;;;;;;;13.21;48.36;98541.91;233965;1217;139150;-58
2022/04/21 12:45:20;;;;;;;18.00;13.40;;;;;;;13.19;48.79;98545.67;233911;1217;139138;-59
2022/04/21 12:50:25;;;;;;;22.00;14.00;;;;;;;13.16;48.71;98553.44;233829;1217;138870;-58
2022/04/21 12:55:29;;;;;;;24.80;13.10;;;;;;;13.09;48.74;98545.00;233823;1217;140048;-57
2022/04/21 13:00:35;;;;;;;20.30;13.00;;;;;;;13.04;48.74;98552.21;233799;1217;139302;-56
2022/04/21 13:05:59;;;;;;;63.90;47.80;;;;;;;12.97;48.72;98547.80;233714;1217;139000;-61
2022/04/21 13:11:02;;;;;;;21.80;15.20;;;;;;;12.94;48.99;98559.21;233705;1217;139013;-58
2022/04/21 13:16:05;;;;;;;17.80;13.20;;;;;;;12.94;48.93;98558.36;233860;1217;139911;-59
2022/04/21 13:26:32;;;;;;;21.80;13.50;;;;;;;12.80;49.03;98558.01;233690;1217;139137;-56
2022/04/21 13:37:07;;;;;;;18.30;12.50;;;;;;;12.72;49.38;98561.69;233467;1217;139175;-57
2022/04/21 13:42:10;;;;;;;19.50;12.00;;;;;;;12.66;49.32;98568.89;233720;1217;140442;-58
2022/04/21 13:47:14;;;;;;;18.30;11.50;;;;;;;12.62;49.45;98573.19;233520;1217;138931;-59
2022/04/21 13:52:17;;;;;;;22.40;12.00;;;;;;;12.58;49.94;98574.85;233750;1217;139709;-57
2022/04/21 13:57:20;;;;;;;20.40;12.10;;;;;;;12.56;49.28;98578.42;233851;1216;139422;-59
2022/04/21 14:02:29;;;;;;;20.20;13.10;;;;;;;12.53;49.70;98581.84;233748;1217;139623;-58
2022/04/21 14:07:32;;;;;;;20.10;12.50;;;;;;;12.51;49.91;98579.87;233748;1217;139335;-56
2022/04/21 14:12:36;;;;;;;19.50;12.90;;;;;;;12.50;50.19;98583.49;233538;1217;139211;-60
2022/04/21 14:17:39;;;;;;;18.40;13.10;;;;;;;12.48;50.48;98584.88;233664;1217;139311;-62
2022/04/21 14:22:42;;;;;;;21.60;12.80;;;;;;;12.46;50.35;98584.02;233799;1216;141181;-62
2022/04/21 14:27:45;;;;;;;16.90;12.10;;;;;;;12.41;50.84;98582.06;233694;1217;139448;-58
2022/04/21 14:32:48;;;;;;;16.90;12.70;;;;;;;12.37;51.19;98581.54;233822;1217;139376;-60
2022/04/21 14:48:44;;;;;;;18.70;13.00;;;;;;;12.22;52.16;98587.41;233775;1217;139113;-58
2022/04/21 14:53:48;;;;;;;;;;;;;;;12.16;52.47;98581.84;233639;1217;139776;-60
2022/04/21 14:58:52;;;;;;;14.10;11.60;;;;;;;12.09;52.64;98582.95;233937;1217;125336;-59
2022/04/21 15:03:55;;;;;;;17.80;12.60;;;;;;;12.03;52.90;98579.98;233878;1217;139231;-58
2022/04/21 15:08:58;;;;;;;59.80;43.40;;;;;;;12.01;52.86;98580.16;233699;1217;141496;-58
2022/04/21 15:14:02;;;;;;;22.60;16.00;;;;;;;12.02;53.57;98579.68;233766;1217;139303;-61
2022/04/21 15:19:09;;;;;;;17.30;12.60;;;;;;;12.02;52.85;98576.82;233785;1217;139348;-60
2022/04/21 15:24:19;;;;;;;17.40;12.40;;;;;;;11.96;53.33;98578.89;233703;1217;139465;-58
2022/04/21 15:29:23;;;;;;;18.70;13.10;;;;;;;11.90;53.37;98583.59;233712;1217;138995;-60
2022/04/21 15:34:26;;;;;;;18.10;13.10;;;;;;;11.85;53.32;98587.36;233887;1217;139011;-58
2022/04/21 15:39:29;;;;;;;19.20;13.40;;;;;;;11.79;53.96;98583.84;233773;1217;139635;-57
2022/04/21 15:44:36;;;;;;;18.00;14.10;;;;;;;11.75;54.06;98588.11;233700;1217;140798;-59
2022/04/21 15:49:42;;;;;;;20.10;13.80;;;;;;;11.70;54.55;98589.88;233822;1217;139579;-59
2022/04/21 16:00:08;;;;;;;19.50;14.50;;;;;;;11.60;55.15;98601.96;233806;1217;139997;-60
2022/04/21 16:05:15;;;;;;;21.30;15.60;;;;;;;11.54;55.24;98604.19;233635;1217;139301;-59
2022/04/21 16:10:19;;;;;;;22.60;15.60;;;;;;;11.52;55.69;98612.73;233676;1217;139282;-59
2022/04/21 16:15:22;;;;;;;79.20;67.90;;;;;;;11.48;55.83;98607.84;233813;1217;139402;-59
2022/04/21 16:20:26;;;;;;;43.70;32.70;;;;;;;11.49;56.46;98608.31;233751;1217;139552;-60
2022/04/21 16:25:29;;;;;;;22.60;16.90;;;;;;;11.52;57.22;98611.48;233764;1217;139413;-60
2022/04/21 16:30:32;;;;;;;23.50;17.40;;;;;;;11.49;57.10;98604.36;233792;1217;139447;-58
2022/04/21 16:35:36;;;;;;;24.10;16.90;;;;;;;11.47;57.13;98599.19;233796;1217;139142;-60
2022/04/21 16:40:39;;;;;;;24.00;15.20;;;;;;;11.48;57.62;98597.92;233836;1217;139791;-59
2022/04/21 16:45:42;;;;;;;21.70;15.40;;;;;;;11.53;57.48;98598.95;233753;1217;139791;-55
2022/04/21 16:50:45;;;;;;;21.90;16.30;;;;;;;11.59;57.55;98595.83;233829;1215;138897;-61
2022/04/21 16:55:48;;;;;;;21.10;16.20;;;;;;;11.61;57.65;98597.45;233646;1217;139978;-60
2022/04/21 17:06:16;;;;;;;23.20;16.60;;;;;;;11.59;57.72;98597.09;233857;1217;141779;-61
2022/04/21 17:11:19;;;;;;;23.20;16.10;;;;;;;11.56;57.74;98597.50;233687;1217;140827;-60
2022/04/21 17:16:23;;;;;;;22.60;16.50;;;;;;;11.50;57.71;98596.53;233733;1217;139473;-62
2022/04/21 17:21:28;;;;;;;126.60;96.60;;;;;;;11.45;58.14;98597.59;233658;1217;139415;-62
2022/04/21 17:26:31;;;;;;;28.80;19.90;;;;;;;11.46;58.56;98603.40;233733;1217;142758;-60
2022/04/21 17:31:37;;;;;;;21.00;17.40;;;;;;;11.44;58.41;98606.20;233688;1217;139161;-59
2022/04/21 17:36:41;;;;;;;25.50;17.00;;;;;;;11.38;58.67;98608.02;233694;1217;140190;-58
2022/04/21 17:41:44;;;;;;;22.70;17.00;;;;;;;11.33;58.90;98611.58;233777;1217;139470;-60
2022/04/21 17:46:47;;;;;;;23.40;16.20;;;;;;;11.29;59.21;98612.73;233709;1217;139457;-58
2022/04/21 17:51:50;;;;;;;25.90;16.10;;;;;;;11.29;59.21;98609.39;233878;1217;139766;-60
2022/04/21 17:56:54;;;;;;;22.00;16.70;;;;;;;11.31;59.03;98614.54;233742;1217;139428;-61
2022/04/21 18:01:57;;;;;;;25.10;19.10;;;;;;;11.34;59.33;98618.27;233674;1216;139088;-61
2022/04/21 18:07:01;;;;;;;24.50;18.50;;;;;;;11.36;59.25;98621.65;233765;1217;139579;-61
2022/04/21 18:12:04;;;;;;;493.30;373.40;;;;;;;11.38;59.78;98626.15;233707;1217;139363;-61
2022/04/21 18:17:08;;;;;;;39.10;29.00;;;;;;;11.46;59.85;98629.52;233651;1216;139508;-61
2022/04/21 18:22:11;;;;;;;26.80;19.30;;;;;;;11.46;59.65;98631.45;233996;1217;139121;-61
2022/04/21 18:27:14;;;;;;;24.80;18.80;;;;;;;11.46;59.61;98628.77;233627;1217;139617;-61
2022/04/21 18:32:17;;;;;;;25.70;17.40;;;;;;;11.45;59.45;98621.95;233779;1217;139608;-61
2022/04/21 18:37:20;;;;;;;89.80;69.00;;;;;;;11.39;59.25;98626.44;233747;1217;138857;-61
2022/04/21 18:42:24;;;;;;;29.00;19.80;;;;;;;11.37;59.34;98623.19;233712;1217;139579;-61
2022/04/21 18:47:27;;;;;;;26.20;20.00;;;;;;;11.33;59.74;98623.33;233787;1215;139457;-60
2022/04/21 18:52:30;;;;;;;25.30;19.20;;;;;;;11.29;59.49;98621.84;233869;1217;142510;-61
2022/04/21 19:02:55;;;;;;;30.90;22.70;;;;;;;11.19;59.35;98633.53;233466;1216;139601;-59
2022/04/21 19:08:00;;;;;;;30.30;23.30;;;;;;;11.19;59.37;98633.94;233615;1217;139926;-57
2022/04/21 19:13:05;;;;;;;32.80;23.90;;;;;;;11.23;59.51;98632.73;233707;1217;139411;-57
2022/04/21 19:18:11;;;;;;;197.90;126.30;;;;;;;11.24;59.25;98629.13;233217;1217;140497;-59
2022/04/21 19:23:17;;;;;;;37.60;26.20;;;;;;;11.24;59.45;98626.42;233378;1217;140005;-60
2022/04/21 19:28:29;;;;;;;31.20;23.90;;;;;;;11.22;59.73;98624.14;233535;1217;140394;-60
2022/04/21 19:33:49;;;;;;;33.80;24.50;;;;;;;11.15;59.67;98618.58;233787;1217;140292;-57
2022/04/21 19:38:55;;;;;;;33.00;25.10;;;;;;;11.09;59.78;98619.84;233686;1217;139647;-59
2022/04/21 19:43:58;;;;;;;;;;;;;;;11.05;59.95;98610.90;233882;1217;139661;-60
2022/04/21 19:49:01;;;;;;;32.70;24.50;;;;;;;10.98;59.89;98608.20;233875;1217;125389;-60
2022/04/21 19:54:04;;;;;;;33.30;24.70;;;;;;;10.94;59.96;98601.61;233829;1216;139651;-60
2022/04/21 19:59:07;;;;;;;36.90;24.00;;;;;;;10.90;60.09;98601.01;233790;1216;140183;-61
2022/04/21 20:04:11;;;;;;;33.40;24.20;;;;;;;10.85;60.20;98603.67;233860;1217;139894;-59
2022/04/21 20:09:14;;;;;;;39.60;25.10;;;;;;;10.79;60.15;98598.94;233787;1217;139971;-59
2022/04/21 20:14:18;;;;;;;33.90;24.00;;;;;;;10.77;60.21;98592.52;233766;1217;140029;-60
2022/04/21 20:30:11;;;;;;;38.10;26.20;;;;;;;10.99;60.16;98585.27;233198;1217;140418;-61
2022/04/21 20:35:14;;;;;;;34.30;24.90;;;;;;;11.00;60.17;98584.79;233178;1217;140424;-60
2022/04/21 20:40:17;;;;;;;35.10;23.00;;;;;;;11.02;60.29;98581.67;233211;1217;139255;-59
2022/04/21 20:45:20;;;;;;;37.60;25.40;;;;;;;11.01;60.00;98578.01;233123;1217;140482;-60
2022/04/21 20:50:23;;;;;;;35.70;24.30;;;;;;;10.98;60.31;98577.86;233109;1217;141529;-59
2022/04/21 20:55:26;;;;;;;38.80;24.60;;;;;;;10.94;60.28;98574.63;233154;1217;139488;-57
2022/04/21 21:00:29;;;;;;;36.90;25.70;;;;;;;10.89;60.37;98575.67;233129;1217;139814;-57
2022/04/21 21:05:32;;;;;;;36.10;26.00;;;;;;;10.86;60.41;98567.50;233104;1217;139196;-57
2022/04/21 21:10:39;;;;;;;37.50;25.10;;;;;;;10.86;60.45;98567.89;233343;1217;140161;-60
2022/04/21 21:15:42;;;;;;;36.30;25.60;;;;;;;10.82;60.56;98567.77;233190;1217;140759;-57
2022/04/21 21:20:45;;;;;;;35.00;25.00;;;;;;;10.79;61.02;98567.34;233156;1217;140261;-60
2022/04/21 21:25:50;;;;;;;41.10;24.30;;;;;;;10.76;60.72;98573.75;233051;1216;140437;-59
2022/04/21 21:30:53;;;;;;;36.90;26.00;;;;;;;10.77;60.76;98571.73;232999;1217;140312;-61
2022/04/21 21:35:56;;;;;;;40.40;25.70;;;;;;;10.78;60.57;98574.48;233218;1217;139539;-61
2022/04/21 21:41:00;;;;;;;37.20;27.00;;;;;;;10.80;60.75;98574.91;233144;1217;139709;-58
2022/04/21 21:46:03;;;;;;;37.90;24.90;;;;;;;10.81;60.97;98578.52;233206;1217;140360;-61
2022/04/21 21:56:28;;;;;;;79.20;52.50;;;;;;;10.80;60.73;98579.34;233754;1217;139783;-59
2022/04/21 22:01:31;;;;;;;39.80;27.00;;;;;;;10.84;61.12;98573.36;233289;1217;139426;-61
2022/04/21 22:06:34;;;;;;;35.90;25.50;;;;;;;10.82;60.68;98576.83;233184;1217;139912;-61
2022/04/21 22:11:38;;;;;;;41.60;26.70;;;;;;;10.80;60.64;98582.73;233172;1217;140141;-59
2022/04/21 22:16:41;;;;;;;38.20;26.20;;;;;;;10.76;60.63;98581.35;233229;1217;140612;-59
2022/04/21 22:21:44;;;;;;;39.40;27.00;;;;;;;10.73;60.96;98575.04;233088;1217;139351;-61
2022/04/21 22:26:47;;;;;;;38.50;26.80;;;;;;;10.70;60.80;98571.36;233074;1217;140230;-61
2022/04/21 22:31:50;;;;;;;36.20;24.90;;;;;;;10.69;60.61;98570.55;233238;1217;139539;-60
2022/04/21 22:36:54;;;;;;;39.70;27.00;;;;;;;10.72;60.56;98564.14;233312;1217;139756;-59
2022/04/21 22:41:57;;;;;;;38.50;27.20;;;;;;;10.78;60.75;98559.42;233209;1217;139349;-60
2022/04/21 22:47:00;;;;;;;40.10;26.70;;;;;;;10.82;60.49;98555.61;233185;1217;139065;-60
2022/04/21 22:52:04;;;;;;;42.00;28.70;;;;;;;10.83;60.49;98550.73;233263;1218;139172;-60
2022/04/21 22:57:07;;;;;;;39.70;26.00;;;;;;;10.83;60.52;98546.63;233284;1217;139833;-59
2022/04/21 23:02:10;;;;;;;40.70;28.50;;;;;;;10.80;60.59;98544.92;233412;1217;139330;-56
2022/04/21 23:07:13;;;;;;;39.40;27.90;;;;;;;10.75;60.93;98541.39;233300;1217;139448;-59
2022/04/21 23:17:38;;;;;;;42.50;28.50;;;;;;;10.66;60.90;98538.83;233071;1219;139810;-59
2022/04/21 23:22:41;;;;;;;46.00;31.50;;;;;;;10.59;61.01;98533.27;233381;1217;139165;-60
2022/04/21 23:27:44;;;;;;;44.10;31.70;;;;;;;10.50;61.07;98529.81;233260;1217;140525;-58
2022/04/21 23:32:47;;;;;;;48.20;32.90;;;;;;;10.46;61.54;98526.54;233167;1217;139461;-60
2022/04/21 23:43:12;;;;;;;47.00;32.80;;;;;;;10.51;61.66;98514.98;233282;1217;140481;-59
2022/04/21 23:48:15;;;;;;;48.40;32.00;;;;;;;10.54;61.69;98513.91;233263;1217;139484;-58
2022/04/21 23:53:25;;;;;;;43.10;30.70;;;;;;;10.55;61.73;98503.88;233269;1217;139397;-58
2022/04/21 23:58:28;;;;;;;50.30;32.60;;;;;;;10.56;61.81;98495.30;233361;1217;138923;-59
